Time,TemperatureF,DewpointF,PressureIn,WindDirection,WindDirectionDegrees,WindSpeedMPH,WindSpeedGustMPH,Humidity,HourlyPrecipIn,Conditions,Clouds,dailyrainin,SoftwareType,DateUTC
2013-10-26 00:28:00,35.6,26.1,30.44,NW,319,5.0,16.0,68,0.00,,,0.00,Wunderground v.1.15,2013-10-26 04:28:00,
2013-10-26 00:38:00,35.8,26.3,30.44,WNW,293,6.0,12.0,68,0.00,,,0.00,Wunderground v.1.15,2013-10-26 04:38:00,
2013-10-26 01:23:00,35.8,26.3,30.42,NW,317,8.0,8.0,68,0.00,,,0.00,Wunderground v.1.15,2013-10-26 05:23:00,
2013-10-26 01:47:00,35.5,26.0,30.42,WNW,302,8.0,8.0,68,0.00,,,0.00,Wunderground v.1.15,2013-10-26 05:47:00,
2013-10-26 02:22:00,34.7,25.6,30.41,WNW,292,2.0,19.0,69,0.00,,,0.00,Wunderground v.1.15,2013-10-26 06:22:00,
2013-10-26 02:37:00,34.9,25.4,30.41,West,275,3.0,3.0,68,0.00,,,0.00,Wunderground v.1.15,2013-10-26 06:37:00,
2013-10-26 02:52:00,34.9,25.4,30.40,WNW,299,3.0,18.0,68,0.00,,,0.00,Wunderground v.1.15,2013-10-26 06:52:00,
2013-10-26 03:07:00,34.7,25.2,30.40,WNW,290,3.0,18.0,68,0.00,,,0.00,Wunderground v.1.15,2013-10-26 07:07:00,
2013-10-26 03:47:00,34.4,24.9,30.40,NW,306,2.0,14.0,68,0.00,,,0.00,Wunderground v.1.15,2013-10-26 07:47:00,
2013-10-26 04:07:00,34.4,25.3,30.39,WNW,283,4.0,4.0,69,0.00,,,0.00,Wunderground v.1.15,2013-10-26 08:07:00,
2013-10-26 04:22:00,34.0,25.2,30.38,NW,311,3.0,3.0,70,0.00,,,0.00,Wunderground v.1.15,2013-10-26 08:22:00,
2013-10-26 05:17:00,34.3,24.8,30.37,WNW,303,3.0,14.0,68,0.00,,,0.00,Wunderground v.1.15,2013-10-26 09:17:00,
2013-10-26 05:32:00,34.4,24.6,30.37,West,267,1.0,1.0,67,0.00,,,0.00,Wunderground v.1.15,2013-10-26 09:32:00,
2013-10-26 05:57:00,33.7,24.3,30.38,WNW,284,1.0,1.0,68,0.00,,,0.00,Wunderground v.1.15,2013-10-26 09:57:00,
2013-10-26 06:22:00,33.7,24.3,30.36,WNW,286,1.0,13.0,68,0.00,,,0.00,Wunderground v.1.15,2013-10-26 10:22:00,
2013-10-26 06:32:00,33.7,24.3,30.36,WNW,286,1.0,1.0,68,0.00,,,0.00,Wunderground v.1.15,2013-10-26 10:32:00,
2013-10-26 07:12:00,32.9,23.8,30.36,WNW,286,0.0,5.0,69,0.00,,,0.00,Wunderground v.1.15,2013-10-26 11:12:00,
2013-10-26 07:47:00,31.6,23.9,30.35,WNW,286,0.0,7.0,73,0.00,,,0.00,Wunderground v.1.15,2013-10-26 11:47:00,
2013-10-26 08:32:00,34.4,25.3,30.34,WNW,298,0.0,9.0,69,0.00,,,0.00,Wunderground v.1.15,2013-10-26 12:32:00,
2013-10-26 08:47:00,36.0,25.4,30.33,WNW,298,0.0,9.0,65,0.00,,,0.00,Wunderground v.1.15,2013-10-26 12:47:00,
2013-10-26 08:57:00,35.6,24.2,30.33,WNW,298,1.0,9.0,63,0.00,,,0.00,Wunderground v.1.15,2013-10-26 12:57:00,
2013-10-26 09:07:00,36.0,23.8,30.33,WNW,298,2.0,2.0,61,0.00,,,0.00,Wunderground v.1.15,2013-10-26 13:07:00,
2013-10-26 09:17:00,36.5,24.3,30.33,WNW,298,3.0,4.0,61,0.00,,,0.00,Wunderground v.1.15,2013-10-26 13:17:00,
2013-10-26 10:37:00,42.1,24.8,30.28,SE,146,2.0,12.0,50,0.00,,,0.00,Wunderground v.1.15,2013-10-26 14:37:00,
2013-10-26 11:12:00,43.5,26.6,30.26,WNW,292,1.0,12.0,51,0.00,,,0.00,Wunderground v.1.15,2013-10-26 15:12:00,
2013-10-26 11:22:00,43.3,26.4,30.25,NW,317,2.0,12.0,51,0.00,,,0.00,Wunderground v.1.15,2013-10-26 15:22:00,
2013-10-26 11:52:00,44.8,24.7,30.23,WSW,247,2.0,2.0,45,0.00,,,0.00,Wunderground v.1.15,2013-10-26 15:52:00,
2013-10-26 12:27:00,45.2,22.9,30.22,WNW,300,5.0,21.0,41,0.00,,,0.00,Wunderground v.1.15,2013-10-26 16:27:00,
2013-10-26 13:23:00,48.6,22.1,30.17,WNW,298,4.0,21.0,35,0.00,,,0.00,Wunderground v.1.15,2013-10-26 17:23:00,
2013-10-26 13:33:00,49.5,21.5,30.16,NW,310,3.0,21.0,33,0.00,,,0.00,Wunderground v.1.15,2013-10-26 17:33:00,
2013-10-26 13:43:00,50.8,22.7,30.16,WNW,302,3.0,14.0,33,0.00,,,0.00,Wunderground v.1.15,2013-10-26 17:43:00,
2013-10-26 13:58:00,50.1,21.3,30.15,WNW,303,7.0,7.0,32,0.00,,,0.00,Wunderground v.1.15,2013-10-26 17:58:00,
2013-10-26 14:43:00,50.5,19.4,30.14,NW,324,8.0,8.0,29,0.00,,,0.00,Wunderground v.1.15,2013-10-26 18:43:00,
2013-10-26 14:58:00,52.0,21.5,30.13,SW,236,2.0,2.0,30,0.00,,,0.00,Wunderground v.1.15,2013-10-26 18:58:00,
2013-10-26 15:43:00,51.9,21.4,30.10,WNW,297,3.0,3.0,30,0.00,,,0.00,Wunderground v.1.15,2013-10-26 19:43:00,
2013-10-26 15:58:00,53.5,18.5,30.09,WNW,284,1.0,21.0,25,0.00,,,0.00,Wunderground v.1.15,2013-10-26 19:58:00,
2013-10-26 16:08:00,54.5,20.3,30.09,WNW,296,2.0,21.0,26,0.00,,,0.00,Wunderground v.1.15,2013-10-26 20:08:00,
2013-10-26 16:18:00,52.8,16.0,30.08,WNW,302,4.0,21.0,23,0.00,,,0.00,Wunderground v.1.15,2013-10-26 20:18:00,
2013-10-26 18:28:00,48.6,16.9,30.06,WNW,297,3.0,3.0,28,0.00,,,0.00,Wunderground v.1.15,2013-10-26 22:28:00,
2013-10-26 18:43:00,48.5,16.8,30.06,NW,320,2.0,2.0,28,0.00,,,0.00,Wunderground v.1.15,2013-10-26 22:43:00,
2013-10-26 18:53:00,48.5,17.6,30.06,NW,307,2.0,15.0,29,0.00,,,0.00,Wunderground v.1.15,2013-10-26 22:53:00,
2013-10-26 19:13:00,48.5,18.4,30.07,WNW,298,2.0,15.0,30,0.00,,,0.00,Wunderground v.1.15,2013-10-26 23:13:00,
2013-10-26 19:38:00,48.6,18.5,30.06,NW,306,3.0,3.0,30,0.00,,,0.00,Wunderground v.1.15,2013-10-26 23:38:00,
2013-10-26 19:53:00,48.8,18.7,30.06,WNW,285,4.0,4.0,30,0.00,,,0.00,Wunderground v.1.15,2013-10-26 23:53:00,
2013-10-26 20:38:00,48.6,22.8,30.06,NW,306,7.0,7.0,36,0.00,,,0.00,Wunderground v.1.15,2013-10-27 00:38:00,
2013-10-26 21:28:00,47.9,26.5,30.07,WNW,297,9.0,11.0,43,0.00,,,0.00,Wunderground v.1.15,2013-10-27 01:28:00,
2013-10-26 21:53:00,47.7,25.1,30.07,WNW,294,11.0,28.0,41,0.00,,,0.00,Wunderground v.1.15,2013-10-27 01:53:00,
2013-10-26 22:13:00,47.4,25.4,30.08,NW,304,12.0,28.0,42,0.00,,,0.00,Wunderground v.1.15,2013-10-27 02:13:00,
2013-10-26 22:23:00,47.0,27.3,30.08,NW,326,18.0,28.0,46,0.00,,,0.00,Wunderground v.1.15,2013-10-27 02:23:00,
2013-10-26 22:48:00,46.2,27.6,30.09,West,259,8.0,35.0,48,0.00,,,0.00,Wunderground v.1.15,2013-10-27 02:48:00,
2013-10-26 22:58:00,46.2,27.1,30.09,WNW,301,11.0,35.0,47,0.00,,,0.00,Wunderground v.1.15,2013-10-27 02:58:00,
2013-10-26 23:43:00,44.8,26.8,30.09,NW,312,10.0,21.0,49,0.00,,,0.00,Wunderground v.1.15,2013-10-27 03:43:00,